sensor_id;sensor_type;location;lat;lon;timestamp;temperature;humidity
10417;DHT22;62605;49.432;8.680;2023-07-29T00:00:07;18.80;99.90
10417;DHT22;62605;49.432;8.680;2023-07-29T00:02:36;18.70;99.90
10417;DHT22;62605;49.432;8.680;2023-07-29T00:05:05;18.70;99.90
10417;DHT22;62605;49.432;8.680;2023-07-29T00:07:33;18.70;99.90
10417;DHT22;62605;49.432;8.680;2023-07-29T00:10:00;18.70;99.90
10417;DHT22;62605;49.432;8.680;2023-07-29T00:12:29;18.70;99.90
10417;DHT22;62605;49.432;8.680;2023-07-29T00:14:56;18.70;99.90
10417;DHT22;62605;49.432;8.680;2023-07-29T00:17:23;18.70;99.90
10417;DHT22;62605;49.432;8.680;2023-07-29T00:19:51;18.80;99.90
10417;DHT22;62605;49.432;8.680;2023-07-29T00:22:21;18.80;99.90
10417;DHT22;62605;49.432;8.680;2023-07-29T00:24:52;18.80;99.90
10417;DHT22;62605;49.432;8.680;2023-07-29T00:27:21;18.80;99.90
10417;DHT22;62605;49.432;8.680;2023-07-29T00:29:48;18.70;99.90
10417;DHT22;62605;49.432;8.680;2023-07-29T00:32:15;18.80;99.90
10417;DHT22;62605;49.432;8.680;2023-07-29T00:34:42;18.80;99.90
10417;DHT22;62605;49.432;8.680;2023-07-29T00:37:10;18.80;99.90
10417;DHT22;62605;49.432;8.680;2023-07-29T00:39:39;18.80;99.90
10417;DHT22;62605;49.432;8.680;2023-07-29T00:42:09;18.80;99.90
10417;DHT22;62605;49.432;8.680;2023-07-29T00:44:36;18.80;99.90
10417;DHT22;62605;49.432;8.680;2023-07-29T00:47:10;18.80;99.90
10417;DHT22;62605;49.432;8.680;2023-07-29T00:49:38;18.70;99.90
10417;DHT22;62605;49.432;8.680;2023-07-29T00:52:09;18.70;99.90
10417;DHT22;62605;49.432;8.680;2023-07-29T00:54:39;18.70;99.90
10417;DHT22;62605;49.432;8.680;2023-07-29T00:57:10;18.70;99.90
10417;DHT22;62605;49.432;8.680;2023-07-29T00:59:40;18.80;99.90
10417;DHT22;62605;49.432;8.680;2023-07-29T01:02:15;18.80;99.90
10417;DHT22;62605;49.432;8.680;2023-07-29T01:04:52;18.80;99.90
10417;DHT22;62605;49.432;8.680;2023-07-29T01:07:27;18.80;99.90
10417;DHT22;62605;49.432;8.680;2023-07-29T01:10:07;18.80;99.90
10417;DHT22;62605;49.432;8.680;2023-07-29T01:12:38;18.80;99.90
10417;DHT22;62605;49.432;8.680;2023-07-29T01:15:13;18.70;99.90
10417;DHT22;62605;49.432;8.680;2023-07-29T01:17:43;18.70;99.90
10417;DHT22;62605;49.432;8.680;2023-07-29T01:20:15;18.70;99.90
10417;DHT22;62605;49.432;8.680;2023-07-29T01:22:43;18.70;99.90
10417;DHT22;62605;49.432;8.680;2023-07-29T01:25:12;18.90;99.90
10417;DHT22;62605;49.432;8.680;2023-07-29T01:27:41;19.00;99.90
10417;DHT22;62605;49.432;8.680;2023-07-29T01:30:12;18.90;99.90
10417;DHT22;62605;49.432;8.680;2023-07-29T01:32:43;19.00;99.90
10417;DHT22;62605;49.432;8.680;2023-07-29T01:35:21;19.00;99.90
10417;DHT22;62605;49.432;8.680;2023-07-29T01:37:58;19.10;99.90
10417;DHT22;62605;49.432;8.680;2023-07-29T01:40:31;19.10;99.90
10417;DHT22;62605;49.432;8.680;2023-07-29T01:42:58;19.10;99.90
10417;DHT22;62605;49.432;8.680;2023-07-29T01:45:26;19.00;99.90
10417;DHT22;62605;49.432;8.680;2023-07-29T01:47:54;19.00;99.90
10417;DHT22;62605;49.432;8.680;2023-07-29T01:50:26;19.00;99.90
10417;DHT22;62605;49.432;8.680;2023-07-29T01:53:07;19.00;99.90
10417;DHT22;62605;49.432;8.680;2023-07-29T01:55:36;18.90;99.90
10417;DHT22;62605;49.432;8.680;2023-07-29T01:58:05;18.90;99.90
10417;DHT22;62605;49.432;8.680;2023-07-29T02:00:34;18.80;99.90
10417;DHT22;62605;49.432;8.680;2023-07-29T02:03:02;18.70;99.90
10417;DHT22;62605;49.432;8.680;2023-07-29T02:05:30;18.70;99.90
10417;DHT22;62605;49.432;8.680;2023-07-29T02:07:58;18.70;99.90
10417;DHT22;62605;49.432;8.680;2023-07-29T02:10:26;18.70;99.90
10417;DHT22;62605;49.432;8.680;2023-07-29T02:12:55;18.70;99.90
10417;DHT22;62605;49.432;8.680;2023-07-29T02:15:23;18.70;99.90
10417;DHT22;62605;49.432;8.680;2023-07-29T02:17:53;18.70;99.90
10417;DHT22;62605;49.432;8.680;2023-07-29T02:20:24;18.70;99.90
10417;DHT22;62605;49.432;8.680;2023-07-29T02:22:59;18.70;99.90
10417;DHT22;62605;49.432;8.680;2023-07-29T02:25:35;18.70;99.90
10417;DHT22;62605;49.432;8.680;2023-07-29T02:28:05;18.80;99.90
10417;DHT22;62605;49.432;8.680;2023-07-29T02:30:45;18.80;99.90
10417;DHT22;62605;49.432;8.680;2023-07-29T02:33:26;18.80;99.90
10417;DHT22;62605;49.432;8.680;2023-07-29T02:36:11;18.80;99.90
10417;DHT22;62605;49.432;8.680;2023-07-29T02:38:41;18.90;99.90
10417;DHT22;62605;49.432;8.680;2023-07-29T02:41:10;18.90;99.90
10417;DHT22;62605;49.432;8.680;2023-07-29T03:42:28;18.90;99.90
10417;DHT22;62605;49.432;8.680;2023-07-29T03:45:01;18.90;99.90
10417;DHT22;62605;49.432;8.680;2023-07-29T04:24:55;19.20;99.90
10417;DHT22;62605;49.432;8.680;2023-07-29T05:04:22;18.90;99.90
10417;DHT22;62605;49.432;8.680;2023-07-29T05:42:40;18.10;99.90
10417;DHT22;62605;49.432;8.680;2023-07-29T05:45:09;18.10;99.90
10417;DHT22;62605;49.432;8.680;2023-07-29T05:47:45;18.10;99.90
10417;DHT22;62605;49.432;8.680;2023-07-29T05:50:16;18.10;99.90
10417;DHT22;62605;49.432;8.680;2023-07-29T05:52:44;18.10;99.90
10417;DHT22;62605;49.432;8.680;2023-07-29T05:55:16;18.10;99.90
10417;DHT22;62605;49.432;8.680;2023-07-29T06:04:57;18.20;99.90
10417;DHT22;62605;49.432;8.680;2023-07-29T06:07:37;18.30;99.90
10417;DHT22;62605;49.432;8.680;2023-07-29T06:12:51;18.30;99.90
10417;DHT22;62605;49.432;8.680;2023-07-29T07:33:38;19.90;99.90
10417;DHT22;62605;49.432;8.680;2023-07-29T07:36:30;20.20;99.90
10417;DHT22;62605;49.432;8.680;2023-07-29T07:39:04;20.60;99.90
10417;DHT22;62605;49.432;8.680;2023-07-29T07:42:07;21.00;99.90
10417;DHT22;62605;49.432;8.680;2023-07-29T07:45:03;21.60;99.90
10417;DHT22;62605;49.432;8.680;2023-07-29T07:47:57;21.70;99.90
10417;DHT22;62605;49.432;8.680;2023-07-29T07:50:44;21.60;99.90
10417;DHT22;62605;49.432;8.680;2023-07-29T07:54:19;21.40;99.90
10417;DHT22;62605;49.432;8.680;2023-07-29T07:56:44;21.10;99.90
10417;DHT22;62605;49.432;8.680;2023-07-29T08:18:49;20.90;99.90
10417;DHT22;62605;49.432;8.680;2023-07-29T08:25:06;21.00;99.90
10417;DHT22;62605;49.432;8.680;2023-07-29T08:27:43;21.20;99.90
10417;DHT22;62605;49.432;8.680;2023-07-29T08:47:00;21.60;99.90
10417;DHT22;62605;49.432;8.680;2023-07-29T08:49:27;21.50;99.90
10417;DHT22;62605;49.432;8.680;2023-07-29T08:51:58;21.50;99.90
10417;DHT22;62605;49.432;8.680;2023-07-29T08:54:27;21.40;99.90
10417;DHT22;62605;49.432;8.680;2023-07-29T08:56:56;21.30;99.90
10417;DHT22;62605;49.432;8.680;2023-07-29T08:59:24;21.30;99.90
10417;DHT22;62605;49.432;8.680;2023-07-29T09:01:54;21.20;99.90
10417;DHT22;62605;49.432;8.680;2023-07-29T09:04:25;21.30;99.90
10417;DHT22;62605;49.432;8.680;2023-07-29T09:06:56;21.30;99.90
10417;DHT22;62605;49.432;8.680;2023-07-29T09:09:25;21.50;99.90
10417;DHT22;62605;49.432;8.680;2023-07-29T09:11:52;21.60;99.90
10417;DHT22;62605;49.432;8.680;2023-07-29T09:14:20;21.80;99.90
10417;DHT22;62605;49.432;8.680;2023-07-29T09:16:47;21.90;99.90
10417;DHT22;62605;49.432;8.680;2023-07-29T09:19:14;21.70;99.90
10417;DHT22;62605;49.432;8.680;2023-07-29T09:21:49;21.60;99.90
10417;DHT22;62605;49.432;8.680;2023-07-29T09:24:16;21.60;99.90
10417;DHT22;62605;49.432;8.680;2023-07-29T09:26:49;21.60;99.90
10417;DHT22;62605;49.432;8.680;2023-07-29T09:29:22;21.60;99.90
10417;DHT22;62605;49.432;8.680;2023-07-29T09:31:50;21.80;99.90
10417;DHT22;62605;49.432;8.680;2023-07-29T09:34:20;21.90;99.90
10417;DHT22;62605;49.432;8.680;2023-07-29T09:36:51;22.10;99.90
10417;DHT22;62605;49.432;8.680;2023-07-29T09:39:23;22.10;99.90
10417;DHT22;62605;49.432;8.680;2023-07-29T09:41:51;22.20;99.90
10417;DHT22;62605;49.432;8.680;2023-07-29T09:44:18;22.50;99.90
10417;DHT22;62605;49.432;8.680;2023-07-29T09:46:48;22.90;99.90
10417;DHT22;62605;49.432;8.680;2023-07-29T09:49:15;23.40;99.90
10417;DHT22;62605;49.432;8.680;2023-07-29T09:51:43;23.40;99.90
10417;DHT22;62605;49.432;8.680;2023-07-29T09:54:13;23.50;99.90
10417;DHT22;62605;49.432;8.680;2023-07-29T09:56:43;23.90;99.90
10417;DHT22;62605;49.432;8.680;2023-07-29T09:59:10;23.90;99.90
10417;DHT22;62605;49.432;8.680;2023-07-29T10:01:37;23.70;99.90
10417;DHT22;62605;49.432;8.680;2023-07-29T10:04:05;23.70;99.90
10417;DHT22;62605;49.432;8.680;2023-07-29T10:06:42;23.50;99.90
10417;DHT22;62605;49.432;8.680;2023-07-29T10:09:14;23.50;99.90
10417;DHT22;62605;49.432;8.680;2023-07-29T10:11:43;23.70;99.90
10417;DHT22;62605;49.432;8.680;2023-07-29T10:14:16;23.70;99.90
10417;DHT22;62605;49.432;8.680;2023-07-29T10:16:46;23.70;99.90
10417;DHT22;62605;49.432;8.680;2023-07-29T10:19:22;23.40;99.90
10417;DHT22;62605;49.432;8.680;2023-07-29T10:21:49;23.20;99.90
10417;DHT22;62605;49.432;8.680;2023-07-29T10:24:21;23.20;99.90
10417;DHT22;62605;49.432;8.680;2023-07-29T10:26:58;23.20;99.90
10417;DHT22;62605;49.432;8.680;2023-07-29T10:29:30;23.20;99.90
10417;DHT22;62605;49.432;8.680;2023-07-29T10:31:58;23.30;99.90
10417;DHT22;62605;49.432;8.680;2023-07-29T10:34:49;23.40;99.90
10417;DHT22;62605;49.432;8.680;2023-07-29T10:37:16;23.90;99.90
10417;DHT22;62605;49.432;8.680;2023-07-29T10:39:53;24.20;99.90
10417;DHT22;62605;49.432;8.680;2023-07-29T10:42:21;24.60;99.90
10417;DHT22;62605;49.432;8.680;2023-07-29T10:44:54;24.50;99.90
10417;DHT22;62605;49.432;8.680;2023-07-29T10:47:25;24.40;99.90
10417;DHT22;62605;49.432;8.680;2023-07-29T10:49:54;25.00;99.90
10417;DHT22;62605;49.432;8.680;2023-07-29T10:52:40;25.10;99.90
10417;DHT22;62605;49.432;8.680;2023-07-29T10:55:25;24.90;99.90
10417;DHT22;62605;49.432;8.680;2023-07-29T10:57:54;24.80;99.90
10417;DHT22;62605;49.432;8.680;2023-07-29T11:00:35;24.70;99.90
10417;DHT22;62605;49.432;8.680;2023-07-29T11:03:05;24.80;99.90
10417;DHT22;62605;49.432;8.680;2023-07-29T11:05:47;24.90;99.90
10417;DHT22;62605;49.432;8.680;2023-07-29T11:08:26;24.90;99.90
10417;DHT22;62605;49.432;8.680;2023-07-29T11:11:06;24.90;99.90
10417;DHT22;62605;49.432;8.680;2023-07-29T11:13:34;25.10;99.90
10417;DHT22;62605;49.432;8.680;2023-07-29T11:16:02;25.20;99.90
10417;DHT22;62605;49.432;8.680;2023-07-29T11:18:33;25.10;99.90
10417;DHT22;62605;49.432;8.680;2023-07-29T11:21:01;24.80;99.90
10417;DHT22;62605;49.432;8.680;2023-07-29T11:23:31;24.60;99.90
10417;DHT22;62605;49.432;8.680;2023-07-29T11:26:04;24.70;99.90
10417;DHT22;62605;49.432;8.680;2023-07-29T11:28:42;25.00;99.90
10417;DHT22;62605;49.432;8.680;2023-07-29T11:31:09;25.40;99.90
10417;DHT22;62605;49.432;8.680;2023-07-29T11:33:39;25.00;99.90
10417;DHT22;62605;49.432;8.680;2023-07-29T11:36:17;25.10;99.90
10417;DHT22;62605;49.432;8.680;2023-07-29T11:38:50;25.00;99.90
10417;DHT22;62605;49.432;8.680;2023-07-29T11:41:20;24.60;99.90
10417;DHT22;62605;49.432;8.680;2023-07-29T11:43:49;24.70;99.90
10417;DHT22;62605;49.432;8.680;2023-07-29T11:46:21;24.90;99.90
10417;DHT22;62605;49.432;8.680;2023-07-29T11:48:48;25.00;99.90
10417;DHT22;62605;49.432;8.680;2023-07-29T11:51:15;24.70;99.90
10417;DHT22;62605;49.432;8.680;2023-07-29T11:53:43;24.70;99.90
10417;DHT22;62605;49.432;8.680;2023-07-29T11:56:14;24.60;99.90
10417;DHT22;62605;49.432;8.680;2023-07-29T11:58:44;24.50;99.90
10417;DHT22;62605;49.432;8.680;2023-07-29T12:01:11;24.50;99.90
10417;DHT22;62605;49.432;8.680;2023-07-29T12:03:40;24.90;99.90
10417;DHT22;62605;49.432;8.680;2023-07-29T12:06:08;25.30;99.90
10417;DHT22;62605;49.432;8.680;2023-07-29T12:08:36;25.30;99.90
10417;DHT22;62605;49.432;8.680;2023-07-29T12:11:04;25.20;99.90
10417;DHT22;62605;49.432;8.680;2023-07-29T12:13:36;25.40;99.90
10417;DHT22;62605;49.432;8.680;2023-07-29T12:16:05;25.40;99.90
10417;DHT22;62605;49.432;8.680;2023-07-29T12:18:33;25.70;99.90
10417;DHT22;62605;49.432;8.680;2023-07-29T12:21:03;25.90;99.90
10417;DHT22;62605;49.432;8.680;2023-07-29T12:23:31;25.90;99.90
10417;DHT22;62605;49.432;8.680;2023-07-29T12:25:59;26.00;99.90
10417;DHT22;62605;49.432;8.680;2023-07-29T12:28:31;26.10;99.90
10417;DHT22;62605;49.432;8.680;2023-07-29T12:31:01;25.90;99.90
10417;DHT22;62605;49.432;8.680;2023-07-29T12:33:34;26.20;99.90
10417;DHT22;62605;49.432;8.680;2023-07-29T12:36:07;26.30;99.90
10417;DHT22;62605;49.432;8.680;2023-07-29T12:38:42;26.30;99.90
10417;DHT22;62605;49.432;8.680;2023-07-29T12:41:54;26.70;99.90
10417;DHT22;62605;49.432;8.680;2023-07-29T12:44:03;27.00;99.90
10417;DHT22;62605;49.432;8.680;2023-07-29T12:46:31;27.10;99.90
10417;DHT22;62605;49.432;8.680;2023-07-29T12:48:59;27.30;99.90
10417;DHT22;62605;49.432;8.680;2023-07-29T12:51:26;26.90;99.90
10417;DHT22;62605;49.432;8.680;2023-07-29T12:53:54;27.10;99.90
10417;DHT22;62605;49.432;8.680;2023-07-29T12:56:21;27.70;99.90
10417;DHT22;62605;49.432;8.680;2023-07-29T12:58:48;27.20;99.90
10417;DHT22;62605;49.432;8.680;2023-07-29T13:01:15;26.90;99.90
10417;DHT22;62605;49.432;8.680;2023-07-29T13:03:43;26.80;99.90
10417;DHT22;62605;49.432;8.680;2023-07-29T13:06:12;26.60;99.90
10417;DHT22;62605;49.432;8.680;2023-07-29T13:08:39;26.30;99.90
10417;DHT22;62605;49.432;8.680;2023-07-29T13:11:06;26.60;99.90
10417;DHT22;62605;49.432;8.680;2023-07-29T13:13:33;26.60;99.90
10417;DHT22;62605;49.432;8.680;2023-07-29T13:16:00;26.10;99.90
10417;DHT22;62605;49.432;8.680;2023-07-29T13:18:28;25.90;99.90
10417;DHT22;62605;49.432;8.680;2023-07-29T13:20:55;26.20;99.90
10417;DHT22;62605;49.432;8.680;2023-07-29T13:23:24;26.40;99.90
10417;DHT22;62605;49.432;8.680;2023-07-29T13:25:51;26.20;99.90
10417;DHT22;62605;49.432;8.680;2023-07-29T13:28:18;26.40;99.90
10417;DHT22;62605;49.432;8.680;2023-07-29T13:30:45;26.20;99.90
10417;DHT22;62605;49.432;8.680;2023-07-29T13:33:13;26.40;99.90
10417;DHT22;62605;49.432;8.680;2023-07-29T13:35:39;26.60;99.90
10417;DHT22;62605;49.432;8.680;2023-07-29T13:38:07;26.40;99.90
10417;DHT22;62605;49.432;8.680;2023-07-29T13:40:35;26.30;99.90
10417;DHT22;62605;49.432;8.680;2023-07-29T13:43:02;26.50;99.90
10417;DHT22;62605;49.432;8.680;2023-07-29T13:45:29;26.60;99.90
10417;DHT22;62605;49.432;8.680;2023-07-29T13:47:56;26.70;99.90
10417;DHT22;62605;49.432;8.680;2023-07-29T13:50:23;26.70;99.90
10417;DHT22;62605;49.432;8.680;2023-07-29T13:52:50;26.90;99.90
10417;DHT22;62605;49.432;8.680;2023-07-29T13:55:17;27.60;99.90
10417;DHT22;62605;49.432;8.680;2023-07-29T13:57:46;27.50;99.90
10417;DHT22;62605;49.432;8.680;2023-07-29T14:00:13;26.60;99.90
10417;DHT22;62605;49.432;8.680;2023-07-29T14:02:41;26.20;99.90
10417;DHT22;62605;49.432;8.680;2023-07-29T14:05:09;25.80;99.90
10417;DHT22;62605;49.432;8.680;2023-07-29T14:07:37;25.60;99.90
10417;DHT22;62605;49.432;8.680;2023-07-29T14:10:04;25.50;99.90
10417;DHT22;62605;49.432;8.680;2023-07-29T14:12:32;25.70;99.90
10417;DHT22;62605;49.432;8.680;2023-07-29T14:15:00;25.80;99.90
10417;DHT22;62605;49.432;8.680;2023-07-29T14:17:27;25.80;99.90
10417;DHT22;62605;49.432;8.680;2023-07-29T14:19:54;25.70;99.90
10417;DHT22;62605;49.432;8.680;2023-07-29T14:22:22;25.80;99.90
10417;DHT22;62605;49.432;8.680;2023-07-29T14:24:49;26.10;99.90
10417;DHT22;62605;49.432;8.680;2023-07-29T14:27:16;26.00;99.90
10417;DHT22;62605;49.432;8.680;2023-07-29T14:29:43;26.30;99.90
10417;DHT22;62605;49.432;8.680;2023-07-29T14:32:13;27.10;99.90
10417;DHT22;62605;49.432;8.680;2023-07-29T14:34:40;27.30;99.90
10417;DHT22;62605;49.432;8.680;2023-07-29T14:37:07;27.00;99.90
10417;DHT22;62605;49.432;8.680;2023-07-29T14:39:34;26.90;99.90
10417;DHT22;62605;49.432;8.680;2023-07-29T14:42:02;26.20;99.90
10417;DHT22;62605;49.432;8.680;2023-07-29T14:44:29;26.80;99.90
10417;DHT22;62605;49.432;8.680;2023-07-29T14:46:56;27.00;99.90
10417;DHT22;62605;49.432;8.680;2023-07-29T14:49:24;26.90;99.90
10417;DHT22;62605;49.432;8.680;2023-07-29T14:51:51;26.40;99.90
10417;DHT22;62605;49.432;8.680;2023-07-29T14:54:18;26.20;99.90
10417;DHT22;62605;49.432;8.680;2023-07-29T14:56:45;26.00;99.90
10417;DHT22;62605;49.432;8.680;2023-07-29T14:59:12;26.00;99.90
10417;DHT22;62605;49.432;8.680;2023-07-29T15:01:39;25.80;99.90
10417;DHT22;62605;49.432;8.680;2023-07-29T15:04:06;25.80;99.90
10417;DHT22;62605;49.432;8.680;2023-07-29T15:06:35;25.90;99.90
10417;DHT22;62605;49.432;8.680;2023-07-29T15:09:04;25.90;99.90
10417;DHT22;62605;49.432;8.680;2023-07-29T15:11:32;26.30;99.90
10417;DHT22;62605;49.432;8.680;2023-07-29T15:13:59;26.50;99.90
10417;DHT22;62605;49.432;8.680;2023-07-29T15:16:29;26.30;99.90
10417;DHT22;62605;49.432;8.680;2023-07-29T15:18:57;26.10;99.90
10417;DHT22;62605;49.432;8.680;2023-07-29T15:21:25;26.10;99.90
10417;DHT22;62605;49.432;8.680;2023-07-29T15:23:54;26.20;99.90
10417;DHT22;62605;49.432;8.680;2023-07-29T15:26:21;26.30;99.90
10417;DHT22;62605;49.432;8.680;2023-07-29T15:28:48;27.00;99.90
10417;DHT22;62605;49.432;8.680;2023-07-29T15:31:17;26.90;99.90
10417;DHT22;62605;49.432;8.680;2023-07-29T15:33:45;26.60;99.90
10417;DHT22;62605;49.432;8.680;2023-07-29T15:36:12;26.70;99.90
10417;DHT22;62605;49.432;8.680;2023-07-29T15:38:39;26.20;99.90
10417;DHT22;62605;49.432;8.680;2023-07-29T15:41:07;25.80;99.90
10417;DHT22;62605;49.432;8.680;2023-07-29T15:43:34;25.80;99.90
10417;DHT22;62605;49.432;8.680;2023-07-29T15:46:01;25.60;99.90
10417;DHT22;62605;49.432;8.680;2023-07-29T15:48:28;25.40;99.90
10417;DHT22;62605;49.432;8.680;2023-07-29T15:50:55;25.40;99.90
10417;DHT22;62605;49.432;8.680;2023-07-29T15:53:22;25.40;99.90
10417;DHT22;62605;49.432;8.680;2023-07-29T15:55:50;25.30;99.90
10417;DHT22;62605;49.432;8.680;2023-07-29T15:58:18;25.20;99.90
10417;DHT22;62605;49.432;8.680;2023-07-29T16:00:46;24.90;99.90
10417;DHT22;62605;49.432;8.680;2023-07-29T16:03:13;24.80;99.90
10417;DHT22;62605;49.432;8.680;2023-07-29T16:05:40;25.00;99.90
10417;DHT22;62605;49.432;8.680;2023-07-29T16:08:07;25.20;99.90
10417;DHT22;62605;49.432;8.680;2023-07-29T16:10:34;25.10;99.90
10417;DHT22;62605;49.432;8.680;2023-07-29T16:13:06;25.00;99.90
10417;DHT22;62605;49.432;8.680;2023-07-29T16:15:50;24.80;99.90
10417;DHT22;62605;49.432;8.680;2023-07-29T16:18:22;24.70;99.90
10417;DHT22;62605;49.432;8.680;2023-07-29T16:20:50;24.60;99.90
10417;DHT22;62605;49.432;8.680;2023-07-29T16:23:18;24.60;99.90
10417;DHT22;62605;49.432;8.680;2023-07-29T16:25:46;24.60;99.90
10417;DHT22;62605;49.432;8.680;2023-07-29T16:28:13;24.70;99.90
10417;DHT22;62605;49.432;8.680;2023-07-29T16:30:40;25.00;99.90
10417;DHT22;62605;49.432;8.680;2023-07-29T16:33:11;25.10;99.90
10417;DHT22;62605;49.432;8.680;2023-07-29T16:35:39;25.10;99.90
10417;DHT22;62605;49.432;8.680;2023-07-29T16:38:07;25.10;99.90
10417;DHT22;62605;49.432;8.680;2023-07-29T16:40:34;25.10;99.90
10417;DHT22;62605;49.432;8.680;2023-07-29T16:43:01;25.00;99.90
10417;DHT22;62605;49.432;8.680;2023-07-29T16:45:28;25.00;99.90
10417;DHT22;62605;49.432;8.680;2023-07-29T16:47:56;25.00;99.90
10417;DHT22;62605;49.432;8.680;2023-07-29T16:50:24;25.10;99.90
10417;DHT22;62605;49.432;8.680;2023-07-29T16:52:51;25.30;99.90
10417;DHT22;62605;49.432;8.680;2023-07-29T16:55:19;24.20;99.90
10417;DHT22;62605;49.432;8.680;2023-07-29T16:57:46;23.20;99.90
10417;DHT22;62605;49.432;8.680;2023-07-29T17:00:14;22.90;99.90
10417;DHT22;62605;49.432;8.680;2023-07-29T17:02:41;22.70;99.90
10417;DHT22;62605;49.432;8.680;2023-07-29T17:05:08;22.50;99.90
10417;DHT22;62605;49.432;8.680;2023-07-29T17:07:37;22.30;99.90
10417;DHT22;62605;49.432;8.680;2023-07-29T17:10:04;22.30;99.90
10417;DHT22;62605;49.432;8.680;2023-07-29T17:12:31;22.20;99.90
10417;DHT22;62605;49.432;8.680;2023-07-29T17:15:00;22.30;99.90
10417;DHT22;62605;49.432;8.680;2023-07-29T17:17:28;22.60;99.90
10417;DHT22;62605;49.432;8.680;2023-07-29T17:19:55;23.00;99.90
10417;DHT22;62605;49.432;8.680;2023-07-29T17:22:25;23.20;99.90
10417;DHT22;62605;49.432;8.680;2023-07-29T17:25:01;23.00;99.90
10417;DHT22;62605;49.432;8.680;2023-07-29T17:27:35;23.00;99.90
10417;DHT22;62605;49.432;8.680;2023-07-29T17:30:08;23.00;99.90
10417;DHT22;62605;49.432;8.680;2023-07-29T17:32:35;23.10;99.90
10417;DHT22;62605;49.432;8.680;2023-07-29T17:35:19;23.40;99.90
10417;DHT22;62605;49.432;8.680;2023-07-29T17:37:57;23.10;99.90
10417;DHT22;62605;49.432;8.680;2023-07-29T17:40:28;22.80;99.90
10417;DHT22;62605;49.432;8.680;2023-07-29T17:42:55;22.60;99.90
10417;DHT22;62605;49.432;8.680;2023-07-29T17:45:22;23.10;99.90
10417;DHT22;62605;49.432;8.680;2023-07-29T17:47:49;22.90;99.90
10417;DHT22;62605;49.432;8.680;2023-07-29T17:50:16;22.90;99.90
10417;DHT22;62605;49.432;8.680;2023-07-29T17:52:45;22.70;99.90
10417;DHT22;62605;49.432;8.680;2023-07-29T17:55:12;23.20;99.90
10417;DHT22;62605;49.432;8.680;2023-07-29T17:57:40;23.40;99.90
10417;DHT22;62605;49.432;8.680;2023-07-29T18:00:08;23.20;99.90
10417;DHT22;62605;49.432;8.680;2023-07-29T18:02:35;23.10;99.90
10417;DHT22;62605;49.432;8.680;2023-07-29T18:05:03;23.00;99.90
10417;DHT22;62605;49.432;8.680;2023-07-29T18:07:30;23.10;99.90
10417;DHT22;62605;49.432;8.680;2023-07-29T18:09:57;22.90;99.90
10417;DHT22;62605;49.432;8.680;2023-07-29T18:12:24;23.00;99.90
10417;DHT22;62605;49.432;8.680;2023-07-29T18:14:56;22.90;99.90
10417;DHT22;62605;49.432;8.680;2023-07-29T18:17:24;22.90;99.90
10417;DHT22;62605;49.432;8.680;2023-07-29T18:19:51;22.90;99.90
10417;DHT22;62605;49.432;8.680;2023-07-29T18:22:18;22.80;99.90
10417;DHT22;62605;49.432;8.680;2023-07-29T18:24:46;22.60;99.90
10417;DHT22;62605;49.432;8.680;2023-07-29T18:27:13;22.50;99.90
10417;DHT22;62605;49.432;8.680;2023-07-29T18:29:43;22.20;99.90
10417;DHT22;62605;49.432;8.680;2023-07-29T18:32:11;22.00;99.90
10417;DHT22;62605;49.432;8.680;2023-07-29T18:34:39;21.80;99.90
10417;DHT22;62605;49.432;8.680;2023-07-29T18:37:06;21.60;99.90
10417;DHT22;62605;49.432;8.680;2023-07-29T18:39:34;21.40;99.90
10417;DHT22;62605;49.432;8.680;2023-07-29T18:42:02;21.30;99.90
10417;DHT22;62605;49.432;8.680;2023-07-29T18:44:30;21.20;99.90
10417;DHT22;62605;49.432;8.680;2023-07-29T18:46:57;21.30;99.90
10417;DHT22;62605;49.432;8.680;2023-07-29T18:49:27;21.20;99.90
10417;DHT22;62605;49.432;8.680;2023-07-29T18:51:55;21.20;99.90
10417;DHT22;62605;49.432;8.680;2023-07-29T18:54:22;21.30;99.90
10417;DHT22;62605;49.432;8.680;2023-07-29T18:56:49;21.20;99.90
10417;DHT22;62605;49.432;8.680;2023-07-29T18:59:16;21.30;99.90
10417;DHT22;62605;49.432;8.680;2023-07-29T19:01:46;21.30;99.90
10417;DHT22;62605;49.432;8.680;2023-07-29T19:04:13;21.40;99.90
10417;DHT22;62605;49.432;8.680;2023-07-29T19:06:42;21.50;99.90
10417;DHT22;62605;49.432;8.680;2023-07-29T19:09:11;21.50;99.90
10417;DHT22;62605;49.432;8.680;2023-07-29T19:11:38;21.40;99.90
10417;DHT22;62605;49.432;8.680;2023-07-29T19:14:06;21.40;99.90
10417;DHT22;62605;49.432;8.680;2023-07-29T19:16:33;21.30;99.90
10417;DHT22;62605;49.432;8.680;2023-07-29T19:19:01;21.20;99.90
10417;DHT22;62605;49.432;8.680;2023-07-29T19:21:29;21.10;99.90
10417;DHT22;62605;49.432;8.680;2023-07-29T19:23:58;21.20;99.90
10417;DHT22;62605;49.432;8.680;2023-07-29T19:26:27;21.10;99.90
10417;DHT22;62605;49.432;8.680;2023-07-29T19:29:00;21.00;99.90
10417;DHT22;62605;49.432;8.680;2023-07-29T19:31:31;21.00;99.90
10417;DHT22;62605;49.432;8.680;2023-07-29T19:33:59;20.90;99.90
10417;DHT22;62605;49.432;8.680;2023-07-29T19:36:31;20.90;99.90
10417;DHT22;62605;49.432;8.680;2023-07-29T19:39:05;20.80;99.90
10417;DHT22;62605;49.432;8.680;2023-07-29T19:41:35;20.80;99.90
10417;DHT22;62605;49.432;8.680;2023-07-29T19:44:08;20.70;99.90
10417;DHT22;62605;49.432;8.680;2023-07-29T19:47:13;20.70;99.90
10417;DHT22;62605;49.432;8.680;2023-07-29T19:49:49;20.60;99.90
10417;DHT22;62605;49.432;8.680;2023-07-29T19:52:17;20.50;99.90
10417;DHT22;62605;49.432;8.680;2023-07-29T19:54:46;20.50;99.90
10417;DHT22;62605;49.432;8.680;2023-07-29T19:57:24;20.50;99.90
10417;DHT22;62605;49.432;8.680;2023-07-29T19:59:54;20.40;99.90
10417;DHT22;62605;49.432;8.680;2023-07-29T20:02:23;20.40;99.90
10417;DHT22;62605;49.432;8.680;2023-07-29T20:04:52;20.40;99.90
10417;DHT22;62605;49.432;8.680;2023-07-29T20:07:20;20.40;99.90
10417;DHT22;62605;49.432;8.680;2023-07-29T20:09:51;20.40;99.90
10417;DHT22;62605;49.432;8.680;2023-07-29T20:12:19;20.30;99.90
10417;DHT22;62605;49.432;8.680;2023-07-29T20:14:46;20.30;99.90
10417;DHT22;62605;49.432;8.680;2023-07-29T20:17:14;20.30;99.90
10417;DHT22;62605;49.432;8.680;2023-07-29T20:19:42;20.30;99.90
10417;DHT22;62605;49.432;8.680;2023-07-29T20:22:12;20.30;99.90
10417;DHT22;62605;49.432;8.680;2023-07-29T20:24:39;20.30;99.90
10417;DHT22;62605;49.432;8.680;2023-07-29T20:27:09;20.30;99.90
10417;DHT22;62605;49.432;8.680;2023-07-29T20:29:37;20.30;99.90
10417;DHT22;62605;49.432;8.680;2023-07-29T20:32:05;20.30;99.90
10417;DHT22;62605;49.432;8.680;2023-07-29T20:34:32;20.40;99.90
10417;DHT22;62605;49.432;8.680;2023-07-29T20:37:00;20.40;99.90
10417;DHT22;62605;49.432;8.680;2023-07-29T20:39:30;20.40;99.90
10417;DHT22;62605;49.432;8.680;2023-07-29T20:42:01;20.40;99.90
10417;DHT22;62605;49.432;8.680;2023-07-29T20:44:32;20.40;99.90